Leesten, Netherlands
Current Conditions -  °F | °C
As of 5:25 PM on Friday 24 Oct 2014 (Local Time) from EHDL Reporting Station
Overcast Overcast  
Wind Chill: 54°   Ceiling: 1800
Heat Index: 54°   Visibility: 6mi
Dew Point: 50°   Wind: 12mph
Humidity: 88%   Direction: 170°S
Pressure: 30.03"   Gusts: NA
Location:  52.13°N, 6.23°E
Report Text: EHDL 241525Z AUTO 17010KT 9999 FEW013 BKN018 OVC036 12/10 Q1017 WHT
Loading
Personal Weather Stations






























Interactive Weather Map
Tropical Storm Tracking
New forecast layout! Learn more

10-Day Weather Forecast

Advertisements
Track Severe Weather on mobile